Latest Weather Observations for Tewantin

IDQ60801

Issued at 3:32 pm EST Thursday 29 June 2017 (issued every 30 minutes, with the page automatically refreshed every 10 minutes)

About weather observations | Map of weather stations | Latest weather observations for QLD | Other Formats
Station Details ID: 040908 Name: TEWANTIN RSL PARK Lat: -26.39 Lon: 153.04 Height: 6.4 m
Data from the previous 72 hours. | See also: Recent months at Tewantin
Date/Time
EST
Temp
°C
App
Temp
°C
Dew
Point
°C
Rel
Hum
%
Delta-T
°C
Wind Press
QNH
hPa
Press
MSL
hPa
Rain since
9am
mm
Dir  Spd
km/h
Gust
km/h
Spd
kts
Gust
kts
29/03:30pm 22.1 21.0 16.4 70 3.5 NNE 17 22 9 12 1018.0 1018.0 0.0
29/03:00pm 22.9 22.4 16.0 65 4.2 NNE 13 20 7 11 1018.1 1018.1 0.0
29/02:30pm 22.7 21.7 15.5 64 4.3 NNE 15 24 8 13 1018.0 1018.0 0.0
29/02:00pm 22.7 20.9 15.5 64 4.3 NNE 19 30 10 16 1017.9 1017.9 0.0
29/01:30pm 22.9 21.4 15.2 62 4.6 NNE 17 28 9 15 1018.3 1018.3 0.0
29/01:00pm 23.3 22.1 16.1 64 4.4 NE 17 28 9 15 1018.8 1018.8 0.0
29/12:30pm 23.6 22.2 14.6 57 5.3 N 15 24 8 13 1019.3 1019.3 0.0
29/12:00pm 23.3 22.2 14.3 57 5.3 N 13 20 7 11 1020.0 1020.0 0.0
29/11:30am 22.9 22.1 15.0 61 4.7 N 13 20 7 11 1020.6 1020.6 0.0
29/11:00am 22.9 22.1 15.0 61 4.7 N 13 20 7 11 1021.1 1021.1 0.0
29/10:30am 22.3 21.7 14.7 62 4.5 NNW 11 17 6 9 1021.5 1021.5 0.0
29/10:00am 22.1 22.3 15.7 67 3.8 NNW 9 13 5 7 1021.8 1021.8 0.0
29/09:30am 21.7 21.9 14.8 65 4.1 NW 7 13 4 7 1022.1 1022.1 0.0
29/09:00am 20.9 21.5 15.4 71 3.3 NW 6 11 3 6 1022.0 1022.0 0.0
29/08:30am 19.5 21.0 15.8 79 2.2 NW 2 7 1 4 1021.9 1021.9 0.0
29/08:00am 17.3 19.1 15.5 89 1.0 CALM 0 6 0 3 1021.8 1021.8 0.0
29/07:30am 15.1 15.9 14.9 99 0.1 WNW 4 7 2 4 1021.8 1021.8 0.0
29/07:00am 14.3 15.6 14.1 99 0.1 CALM 0 0 0 0 1021.8 1021.8 0.0
29/06:30am 14.3 15.6 14.1 99 0.1 CALM 0 0 0 0 1021.9 1021.9 0.0
29/06:00am 14.5 15.9 14.3 99 0.1 CALM 0 0 0 0 1021.9 1021.9 0.0
29/05:30am 14.8 16.3 14.6 99 0.1 CALM 0 0 0 0 1021.7 1021.7 0.0
29/05:00am 15.1 16.7 14.9 99 0.1 CALM 0 0 0 0 1021.6 1021.6 0.0
29/04:30am 15.3 17.0 15.1 99 0.1 CALM 0 0 0 0 1021.6 1021.6 0.0
29/04:00am 15.3 16.9 15.0 98 0.2 CALM 0 0 0 0 1021.7 1021.7 0.0
29/03:30am 15.3 16.9 15.0 98 0.2 CALM 0 0 0 0 1022.0 1022.0 0.0
29/03:00am 15.4 16.0 15.2 99 0.1 N 6 7 3 4 1021.8 1021.8 0.0
29/02:30am 15.1 15.3 14.8 98 0.2 WNW 7 9 4 5 1022.4 1022.4 0.0
29/02:00am 15.0 16.1 14.7 98 0.2 NW 2 7 1 4 1022.6 1022.6 0.0
29/01:30am 15.5 17.2 15.3 99 0.1 CALM 0 0 0 0 1022.8 1022.8 0.0
29/01:00am 15.6 17.3 15.3 98 0.2 CALM 0 0 0 0 1023.2 1023.2 0.0
29/12:30am 15.5 17.1 14.9 96 0.3 CALM 0 0 0 0 1023.9 1023.9 0.0
29/12:00am 15.5 17.1 15.0 97 0.3 CALM 0 0 0 0 1023.8 1023.8 0.0
 
Date/Time
EST
Temp
°C
App
Temp
°C
Dew
Point
°C
Rel
Hum
%
Delta-T
°C
Wind Press
QNH
hPa
Press
MSL
hPa
Rain since
9am
mm
Dir  Spd
km/h
Gust
km/h
Spd
kts
Gust
kts
28/11:30pm 15.7 17.2 14.6 93 0.6 CALM 0 6 0 3 1023.9 1023.9 0.0
28/11:00pm 16.1 17.7 15.0 93 0.6 CALM 0 0 0 0 1024.0 1024.0 0.0
28/10:30pm 16.5 18.3 15.5 94 0.6 CALM 0 0 0 0 1024.0 1024.0 0.0
28/10:00pm 16.7 18.4 15.1 90 0.9 CALM 0 0 0 0 1024.3 1024.3 0.0
28/09:30pm 17.3 18.9 14.9 86 1.4 CALM 0 0 0 0 1024.3 1024.3 0.0
28/09:00pm 17.6 19.2 15.0 85 1.5 CALM 0 0 0 0 1024.2 1024.2 0.0
28/08:30pm 17.5 18.8 15.1 86 1.4 SW 2 7 1 4 1024.1 1024.1 0.0
28/08:00pm 18.0 18.8 14.9 82 1.8 NW 4 7 2 4 1023.8 1023.8 0.0
28/07:30pm 18.1 19.3 15.0 82 1.8 WSW 2 6 1 3 1023.7 1023.7 0.0
28/07:00pm 18.6 20.1 14.7 78 2.3 CALM 0 0 0 0 1023.5 1023.5 0.0
28/06:30pm 19.0 19.8 14.7 76 2.5 NE 4 6 2 3 1023.2 1023.2 0.0
28/06:00pm 19.4 19.7 14.4 73 2.9 NE 6 7 3 4 1023.1 1023.1 0.0
28/05:30pm 19.5 20.0 15.0 75 2.6 NE 6 9 3 5 1023.0 1023.0 0.0
28/05:00pm 20.2 20.1 15.0 72 3.0 NNE 9 13 5 7 1022.9 1022.9 0.0
28/04:30pm 20.7 21.0 15.0 70 3.4 NE 7 13 4 7 1022.8 1022.8 0.0
28/04:00pm 21.2 20.7 14.8 67 3.8 NNE 11 17 6 9 1022.7 1022.7 0.0
28/03:30pm 21.6 20.0 15.0 66 3.9 NNE 17 22 9 12 1022.5 1022.5 0.0
28/03:00pm 21.8 20.9 14.9 65 4.1 NE 13 20 7 11 1022.5 1022.5 0.0
28/02:30pm 22.1 21.1 14.5 62 4.5 NE 13 20 7 11 1022.4 1022.4 0.0
28/02:00pm 22.1 21.0 14.2 61 4.6 NNE 13 19 7 10 1022.4 1022.4 0.0
28/01:30pm 23.0 22.2 15.1 61 4.7 NE 13 19 7 10 1022.6 1022.6 0.0
28/01:00pm 22.7 21.4 13.7 56 5.2 NNE 13 22 7 12 1022.6 1022.6 0.0
28/12:30pm 22.7 21.3 13.5 56 5.3 NE 13 20 7 11 1023.1 1023.1 0.0
28/12:00pm 22.8 21.7 14.4 59 4.9 NNE 13 20 7 11 1023.7 1023.7 0.0
28/11:30am 23.1 22.1 14.7 59 5.0 NE 13 22 7 12 1024.2 1024.2 0.0
28/11:00am 23.4 23.0 15.2 60 4.9 NE 11 19 6 10 1024.7 1024.7 0.0
28/10:30am 22.7 21.8 14.8 61 4.7 NE 13 19 7 10 1024.8 1024.8 0.0
28/10:00am 21.0 23.0 16.0 73 3.0 CALM 0 0 0 0 1025.0 1025.0 0.0
28/09:30am 20.6 21.9 16.2 76 2.6 SSE 4 7 2 4 1025.0 1025.0 0.0
28/09:00am 19.3 19.7 16.2 82 1.8 S 9 13 5 7 1025.2 1025.2 0.0
28/08:30am 18.4 19.4 16.4 88 1.2 S 6 7 3 4 1024.9 1024.9 0.0
28/08:00am 16.7 18.9 16.4 98 0.2 CALM 0 0 0 0 1024.6 1024.6 0.0
28/07:30am 15.9 17.8 15.7 99 0.1 CALM 0 0 0 0 1024.3 1024.3 0.0
28/07:00am 15.4 17.1 15.2 99 0.1 CALM 0 0 0 0 1024.0 1024.0 0.0
28/06:30am 15.1 16.3 14.9 99 0.1 SSW 2 7 1 4 1023.8 1023.8 0.0
28/06:00am 15.0 16.6 14.8 99 0.1 CALM 0 0 0 0 1023.3 1023.3 0.0
28/05:30am 15.0 16.6 14.8 99 0.1 CALM 0 0 0 0 1023.0 1023.0 0.0
28/05:00am 15.2 16.8 14.9 98 0.2 CALM 0 0 0 0 1023.1 1023.1 0.0
28/04:30am 15.6 17.2 14.8 95 0.5 CALM 0 2 0 1 1023.1 1023.1 0.0
28/04:00am 16.1 17.0 15.1 94 0.6 SSE 4 7 2 4 1023.0 1023.0 0.0
28/03:30am 16.1 17.5 15.5 96 0.3 S 2 7 1 4 1023.1 1023.1 0.0
28/03:00am 15.9 16.9 15.4 97 0.3 SW 4 7 2 4 1023.3 1023.3 0.0
28/02:30am 15.4 16.7 15.1 98 0.2 SW 2 7 1 4 1023.4 1023.4 0.0
28/02:00am 15.1 16.2 14.6 97 0.3 SW 2 7 1 4 1023.5 1023.5 0.0
28/01:30am 14.9 15.9 14.4 97 0.3 WNW 2 9 1 5 1023.6 1023.6 0.0
28/01:00am 15.3 16.4 14.5 95 0.5 SW 2 6 1 3 1023.6 1023.6 0.0
28/12:30am 15.7 17.2 14.7 94 0.6 CALM 0 0 0 0 1023.7 1023.7 0.0
28/12:00am 16.0 17.4 14.5 91 0.9 CALM 0 0 0 0 1024.0 1024.0 0.0
 
Date/Time
EST
Temp
°C
App
Temp
°C
Dew
Point
°C
Rel
Hum
%
Delta-T
°C
Wind Press
QNH
hPa
Press
MSL
hPa
Rain since
9am
mm
Dir  Spd
km/h
Gust
km/h
Spd
kts
Gust
kts
27/11:30pm 16.3 17.8 14.7 90 0.9 CALM 0 0 0 0 1024.4 1024.4 0.0
27/11:00pm 16.5 17.0 15.0 91 0.9 WSW 6 7 3 4 1024.5 1024.5 0.0
27/10:30pm 16.2 16.7 15.1 93 0.6 SW 6 7 3 4 1024.5 1024.5 0.0
27/10:00pm 16.8 18.4 14.8 88 1.1 CALM 0 0 0 0 1024.4 1024.4 0.0
27/09:30pm 17.4 19.2 15.4 88 1.2 CALM 0 0 0 0 1024.6 1024.6 0.0
27/09:00pm 18.0 19.6 14.9 82 1.8 CALM 0 6 0 3 1024.6 1024.6 0.0
27/08:30pm 18.0 19.7 15.1 83 1.7 CALM 0 0 0 0 1024.3 1024.3 0.0
27/08:00pm 18.4 20.1 15.3 82 1.8 CALM 0 0 0 0 1024.2 1024.2 0.0
27/07:30pm 18.7 19.7 15.4 81 1.9 E 4 9 2 5 1024.0 1024.0 0.0
27/07:00pm 18.7 20.3 14.8 78 2.3 CALM 0 0 0 0 1023.9 1023.9 0.0
27/06:30pm 19.1 20.2 14.6 75 2.6 ENE 2 7 1 4 1023.6 1023.6 0.0
27/06:00pm 19.2 20.5 14.0 72 3.0 CALM 0 0 0 0 1023.5 1023.5 0.0
27/05:30pm 19.7 19.9 14.3 71 3.1 E 6 7 3 4 1023.2 1023.2 0.0
27/05:00pm 20.2 20.2 14.1 68 3.5 ENE 7 11 4 6 1023.1 1023.1 0.0
27/04:30pm 20.8 20.8 14.2 66 3.8 ENE 7 11 4 6 1023.0 1023.0 0.0
27/04:00pm 21.4 20.5 13.8 62 4.4 E 11 19 6 10 1022.9 1022.9 0.0
27/03:30pm 21.5 20.6 13.7 61 4.5 E 11 17 6 9 1022.8 1022.8 0.0
27/03:00pm 21.6 20.8 14.0 62 4.4 E 11 17 6 9 1022.9 1022.9 0.0
27/02:30pm 21.5 20.7 13.9 62 4.4 E 11 17 6 9 1022.9 1022.9 0.0
27/02:00pm 22.1 21.5 14.7 63 4.3 ENE 11 17 6 9 1022.9 1022.9 0.0
27/01:30pm 22.0 21.0 14.6 63 4.4 E 13 19 7 10 1023.0 1023.0 0.0
27/01:00pm 21.4 20.7 14.3 64 4.1 E 11 19 6 10 1023.3 1023.3 0.0
27/12:30pm 21.1 19.8 14.7 67 3.8 E 15 20 8 11 1023.7 1023.7 0.0
27/12:00pm 21.3 20.4 14.9 67 3.8 ESE 13 19 7 10 1023.9 1023.9 0.0
27/11:30am 20.3 19.6 16.5 79 2.3 SE 15 22 8 12 1024.3 1024.3 0.0
27/11:00am 20.9 20.2 15.4 71 3.2 SE 13 19 7 10 1024.5 1024.5 0.0
27/10:30am 21.4 21.1 15.5 69 3.5 S 11 17 6 9 1024.7 1024.7 0.0
27/10:00am 20.3 19.6 14.2 68 3.5 S 11 19 6 10 1025.1 1025.1 0.0
27/09:30am 20.3 20.4 15.5 74 2.8 S 9 17 5 9 1025.0 1025.0 0.0
27/09:00am 19.0 18.7 14.5 75 2.6 SSW 9 13 5 7 1024.9 1024.9 0.0
27/08:30am 18.1 17.9 14.8 81 1.9 SSE 9 13 5 7 1024.7 1024.7 0.0
27/08:00am 17.2 17.5 15.0 87 1.3 S 7 9 4 5 1024.3 1024.3 0.0
27/07:30am 16.0 16.6 15.4 96 0.3 S 6 7 3 4 1024.0 1024.0 0.0
27/07:00am 14.6 16.0 14.4 99 0.1 CALM 0 0 0 0 1023.9 1023.9 0.0
27/06:30am 14.5 15.5 14.3 99 0.1 S 2 7 1 4 1023.7 1023.7 0.0
27/06:00am 14.5 15.9 14.3 99 0.1 CALM 0 0 0 0 1023.0 1023.0 0.0
27/05:30am 14.6 16.0 14.4 99 0.1 CALM 0 0 0 0 1022.9 1022.9 0.0
27/05:00am 14.8 16.3 14.6 99 0.1 CALM 0 0 0 0 1022.7 1022.7 0.0
27/04:30am 14.6 16.0 14.4 99 0.1 CALM 0 0 0 0 1022.6 1022.6 0.0
27/04:00am 14.9 16.4 14.7 99 0.1 CALM 0 0 0 0 1022.5 1022.5 0.0
27/03:30am 14.9 16.4 14.7 99 0.1 CALM 0 0 0 0 1022.5 1022.5 0.0
27/03:00am 15.0 16.6 14.8 99 0.1 CALM 0 0 0 0 1022.7 1022.7 0.0
27/02:30am 15.1 16.7 14.9 99 0.1 CALM 0 0 0 0 1022.7 1022.7 0.0
27/02:00am 15.4 17.1 15.2 99 0.1 CALM 0 0 0 0 1022.5 1022.5 0.0
27/01:30am 15.2 16.8 15.0 99 0.1 CALM 0 0 0 0 1022.6 1022.6 0.0
27/01:00am 15.3 17.0 15.1 99 0.1 CALM 0 0 0 0 1022.7 1022.7 0.0
27/12:30am 15.4 17.1 15.2 99 0.1 CALM 0 0 0 0 1022.6 1022.6 0.0
27/12:00am 15.3 16.9 14.8 97 0.3 CALM 0 0 0 0 1022.7 1022.7 0.0
 
Date/Time
EST
Temp
°C
App
Temp
°C
Dew
Point
°C
Rel
Hum
%
Delta-T
°C
Wind Press
QNH
hPa
Press
MSL
hPa
Rain since
9am
mm
Dir  Spd
km/h
Gust
km/h
Spd
kts
Gust
kts
26/11:30pm 15.5 17.2 15.2 98 0.2 CALM 0 6 0 3 1022.7 1022.7 0.0
26/11:00pm 15.8 17.4 14.8 94 0.6 CALM 0 0 0 0 1022.6 1022.6 0.0
26/10:30pm 16.1 17.8 15.1 94 0.6 CALM 0 0 0 0 1022.8 1022.8 0.0
26/10:00pm 16.4 16.9 15.6 95 0.5 S 7 9 4 5 1022.9 1022.9 0.0
26/09:30pm 16.3 16.9 15.3 94 0.6 SSW 6 7 3 4 1022.9 1022.9 0.0
26/09:00pm 16.7 17.2 15.6 93 0.6 SSW 7 9 4 5 1022.6 1022.6 0.0
26/08:30pm 17.1 17.9 15.8 92 0.8 SSW 6 7 3 4 1022.4 1022.4 0.0
26/08:00pm 17.5 18.5 16.4 93 0.7 SW 6 7 3 4 1022.2 1022.2 0.0
26/07:30pm 17.9 19.0 16.6 92 0.8 SSW 6 9 3 5 1022.0 1022.0 0.0
26/07:00pm 18.2 19.3 16.7 91 0.9 SSW 6 7 3 4 1021.6 1021.6 0.0
26/06:30pm 18.8 20.0 16.8 88 1.2 S 6 7 3 4 1021.4 1021.4 0.0
26/06:00pm 19.5 20.5 16.3 82 1.9 SSE 6 7 3 4 1020.7 1020.7 0.0
26/05:30pm 20.0 20.9 16.0 78 2.4 SE 6 7 3 4 1020.3 1020.3 0.0
26/05:00pm 20.4 21.0 15.8 75 2.7 ENE 7 11 4 6 1020.0 1020.0 0.0
26/04:30pm 21.2 21.6 16.2 73 3.0 E 9 13 5 7 1019.8 1019.8 0.0
26/04:00pm 21.4 21.9 16.6 74 2.9 NE 9 13 5 7 1019.8 1019.8 0.0

Other Formats:

Comma delimited format used in spreadsheet applications
http://www.bom.gov.au/fwo/IDQ60801/IDQ60801.94570.axf

JavaScript Object Notation format (JSON) in row-major order
http://www.bom.gov.au/fwo/IDQ60801/IDQ60801.94570.json